Time;durP1;ratioP1;P1;durP2;ratioP2;P2;SDS_P1;SDS_P2;PMS_P1;PMS_P2;Temp;Humidity;BMP_temperature;BMP_pressure;BME280_temperature;BME280_humidity;BME280_pressure;Samples;Min_cycle;Max_cycle;Signal;HPM_P1;HPM_P2
2022/08/08 00:01:14;;;;;;;8.32;4.40;;;;;;;16.38;71.82;101598.72;5056999;28;20507;-81
2022/08/08 00:03:49;;;;;;;8.68;4.57;;;;;;;16.39;71.68;101584.53;5058565;28;20088;-81
2022/08/08 00:06:33;;;;;;;5.40;4.20;;;;;;;16.43;71.73;101588.47;5057325;28;20067;-80
2022/08/08 00:09:05;;;;;;;8.40;4.90;;;;;;;16.47;71.47;101598.53;5055935;28;20041;-79
2022/08/08 00:11:40;;;;;;;9.55;4.80;;;;;;;16.45;71.66;101589.13;5055979;28;20099;-78
2022/08/08 00:14:13;;;;;;;6.68;4.57;;;;;;;16.42;71.83;101586.81;5052000;28;20092;-78
2022/08/08 00:16:47;;;;;;;7.38;4.53;;;;;;;16.45;71.80;101583.84;5052632;28;20049;-80
2022/08/08 00:19:18;;;;;;;6.45;4.78;;;;;;;16.39;71.79;101576.59;5055087;28;20045;-79
2022/08/08 00:21:49;;;;;;;6.40;5.03;;;;;;;16.41;71.94;101579.91;5053510;28;20053;-81
2022/08/08 00:24:22;;;;;;;6.82;4.90;;;;;;;16.37;72.00;101576.78;5054859;28;20080;-81
2022/08/08 00:26:52;;;;;;;8.73;4.80;;;;;;;16.35;72.35;101580.56;5056013;28;20106;-81
2022/08/08 00:29:26;;;;;;;6.50;4.82;;;;;;;16.36;72.03;101576.94;5055625;28;20515;-81
2022/08/08 00:31:58;;;;;;;6.80;5.00;;;;;;;16.33;72.24;101575.47;5056347;28;20052;-81
2022/08/08 00:35:13;;;;;;;7.78;4.90;;;;;;;16.21;72.70;101585.56;5056074;28;20076;-81
2022/08/08 00:37:49;;;;;;;7.15;4.90;;;;;;;16.11;73.27;101584.09;5058030;28;20051;-80
2022/08/08 00:40:49;;;;;;;7.38;5.18;;;;;;;16.07;73.17;101580.97;5057590;28;20051;-81
2022/08/08 00:43:44;;;;;;;6.68;5.10;;;;;;;16.03;73.65;101590.25;5032786;28;20107;-81
2022/08/08 00:46:41;;;;;;;6.15;5.03;;;;;;;16.00;73.48;101587.94;5059295;28;20079;-83
2022/08/08 00:49:46;;;;;;;6.28;5.00;;;;;;;15.93;73.93;101589.59;5063898;28;20511;-82
2022/08/08 00:52:32;;;;;;;7.75;5.28;;;;;;;15.83;74.30;101581.03;5016132;28;20092;-82
2022/08/08 00:55:25;;;;;;;7.95;5.35;;;;;;;15.75;74.68;101573.13;5062524;28;20507;-82
2022/08/08 00:58:39;;;;;;;7.68;5.32;;;;;;;15.73;74.63;101585.66;5051860;28;20080;-80
2022/08/08 01:01:14;;;;;;;9.73;5.78;;;;;;;15.58;75.26;101574.97;5061102;28;20053;-83
2022/08/08 01:04:10;;;;;;;8.27;5.47;;;;;;;15.52;75.53;101586.97;5059084;28;20140;-81
2022/08/08 01:07:24;;;;;;;6.80;5.13;;;;;;;15.50;75.92;101596.88;5014642;28;20111;-80
2022/08/08 01:10:46;;;;;;;6.80;5.53;;;;;;;15.43;76.31;101595.88;4984937;28;20076;-81
2022/08/08 01:13:57;;;;;;;8.52;5.28;;;;;;;15.47;76.35;101580.53;5036581;28;20190;-81
2022/08/08 01:16:55;;;;;;;7.60;5.40;;;;;;;15.35;76.68;101581.84;5053432;28;20534;-81
2022/08/08 01:20:03;;;;;;;8.45;5.65;;;;;;;15.29;77.01;101580.69;5056317;28;20132;-82
2022/08/08 01:23:05;;;;;;;7.93;5.72;;;;;;;15.22;77.49;101582.31;5026316;28;20044;-81
2022/08/08 01:26:05;;;;;;;7.90;5.65;;;;;;;15.08;77.97;101593.53;4988136;28;20077;-80
2022/08/08 01:29:01;;;;;;;6.60;5.90;;;;;;;15.09;78.06;101598.63;5052025;28;20085;-80
2022/08/08 01:32:24;;;;;;;8.68;5.90;;;;;;;15.04;78.00;101590.38;5057729;28;20052;-79
2022/08/08 01:35:20;;;;;;;7.68;5.70;;;;;;;14.99;78.14;101599.75;4961815;28;20183;-81
2022/08/08 01:38:21;;;;;;;7.45;5.85;;;;;;;15.01;78.42;101603.06;5040245;28;20077;-81
2022/08/08 01:40:58;;;;;;;9.07;5.68;;;;;;;14.92;78.64;101603.03;5050124;28;20041;-81
2022/08/08 01:43:36;;;;;;;10.52;5.85;;;;;;;14.89;79.06;101595.44;5064459;28;20114;-79
2022/08/08 01:46:15;;;;;;;11.75;5.72;;;;;;;14.84;79.18;101586.38;5057596;28;20170;-79
2022/08/08 01:48:52;;;;;;;8.95;6.35;;;;;;;14.79;79.51;101584.22;5056927;28;20431;-79
2022/08/08 01:51:58;;;;;;;7.38;5.88;;;;;;;14.76;79.81;101581.06;5054881;28;20363;-79
2022/08/08 01:54:40;;;;;;;8.05;6.15;;;;;;;14.75;80.06;101587.34;5036626;28;20088;-79
2022/08/08 01:57:19;;;;;;;9.30;6.18;;;;;;;14.71;80.21;101583.38;5057121;28;20124;-79
2022/08/08 02:00:01;;;;;;;9.57;6.13;;;;;;;14.74;80.37;101577.78;5059911;28;20091;-80
2022/08/08 02:05:05;;;;;;;7.88;6.10;;;;;;;14.69;80.70;101580.06;5077794;28;20040;-80
2022/08/08 02:07:54;;;;;;;9.15;6.10;;;;;;;14.63;80.92;101581.56;5081974;28;20072;-79
2022/08/08 02:10:37;;;;;;;7.05;5.50;;;;;;;14.63;81.06;101592.09;5081142;28;20080;-81
2022/08/08 02:13:11;;;;;;;8.75;6.75;;;;;;;14.59;81.11;101593.38;5080684;28;20087;-79
2022/08/08 02:15:45;;;;;;;8.68;6.50;;;;;;;14.52;81.37;101595.81;5078609;28;20056;-81
2022/08/08 02:18:15;;;;;;;9.63;6.63;;;;;;;14.50;81.70;101592.53;5070141;28;20056;-80
2022/08/08 02:22:30;;;;;;;10.20;6.85;;;;;;;14.44;82.03;101597.59;5059050;28;20102;-80
2022/08/08 02:23:42;;;;;;;9.38;6.90;;;;;;;14.41;82.03;101595.25;5070780;28;20045;-80
2022/08/08 02:26:16;;;;;;;17.38;7.15;;;;;;;14.36;82.20;101597.50;5078879;28;20079;-80
2022/08/08 02:28:54;;;;;;;7.78;6.70;;;;;;;14.33;82.31;101595.19;5066100;28;20118;-79
2022/08/08 02:31:39;;;;;;;11.27;7.50;;;;;;;14.31;82.67;101608.53;5071039;28;20083;-80
2022/08/08 02:34:14;;;;;;;8.88;7.03;;;;;;;14.28;82.74;101608.81;5082712;28;20157;-79
2022/08/08 02:36:56;;;;;;;10.20;7.15;;;;;;;14.22;83.18;101609.44;5082691;28;20135;-80
2022/08/08 02:39:51;;;;;;;8.07;6.90;;;;;;;14.15;83.02;101598.75;5079997;28;20083;-80
2022/08/08 02:42:46;;;;;;;8.55;7.05;;;;;;;14.12;83.72;101606.94;5060800;28;20045;-81
2022/08/08 02:46:06;;;;;;;9.18;6.80;;;;;;;14.06;83.89;101589.16;5063890;28;20052;-79
2022/08/08 02:49:00;;;;;;;15.90;7.10;;;;;;;14.05;84.08;101595.38;5084038;28;20127;-79
2022/08/08 02:51:57;;;;;;;10.32;7.22;;;;;;;14.01;84.28;101599.31;5081307;28;20487;-80
2022/08/08 02:55:06;;;;;;;9.75;7.30;;;;;;;13.97;84.75;101597.13;5043576;28;20076;-80
2022/08/08 02:58:03;;;;;;;11.02;7.40;;;;;;;13.93;85.06;101599.25;5012736;28;20081;-81
2022/08/08 03:00:50;;;;;;;11.38;7.68;;;;;;;13.95;85.10;101597.28;5059024;28;20077;-81
2022/08/08 03:04:06;;;;;;;10.02;7.70;;;;;;;13.86;85.17;101598.22;5058810;28;20488;-79
2022/08/08 03:07:11;;;;;;;11.48;7.65;;;;;;;13.87;85.40;101600.69;5060858;28;20431;-80
2022/08/08 03:10:11;;;;;;;11.23;7.68;;;;;;;13.75;86.05;101607.16;4996935;28;20052;-80
2022/08/08 03:13:08;;;;;;;9.93;7.80;;;;;;;13.70;86.43;101603.38;5059777;28;20135;-80
2022/08/08 03:15:59;;;;;;;10.70;7.93;;;;;;;13.75;86.35;101603.72;5062903;28;20124;-80
2022/08/08 03:18:31;;;;;;;10.55;7.80;;;;;;;13.72;86.41;101607.47;5078124;28;20087;-79
2022/08/08 03:20:59;;;;;;;13.27;7.97;;;;;;;13.67;86.91;101598.41;5078178;28;20091;-80
2022/08/08 03:23:29;;;;;;;11.02;8.60;;;;;;;13.65;87.00;101600.38;5074140;28;20396;-79
2022/08/08 03:25:56;;;;;;;11.20;7.82;;;;;;;13.63;87.35;101602.31;5060431;28;20045;-78
2022/08/08 03:28:31;;;;;;;11.52;8.38;;;;;;;13.65;87.21;101609.09;5060651;28;20041;-78
2022/08/08 03:30:57;;;;;;;11.60;8.15;;;;;;;13.64;87.41;101606.59;5062577;28;20112;-78
2022/08/08 03:33:23;;;;;;;9.55;7.95;;;;;;;13.65;87.13;101606.44;5064477;28;20380;-79
2022/08/08 03:35:51;;;;;;;11.18;8.40;;;;;;;13.62;87.03;101601.50;5080568;28;20063;-78
2022/08/08 03:38:21;;;;;;;12.65;8.45;;;;;;;13.61;87.27;101599.84;5079164;28;20363;-78
2022/08/08 03:40:54;;;;;;;15.25;8.05;;;;;;;13.57;87.74;101609.84;5076595;28;20068;-78
2022/08/08 03:43:21;;;;;;;11.52;8.32;;;;;;;13.54;87.68;101604.06;5062208;28;20487;-79
2022/08/08 03:45:48;;;;;;;11.98;8.15;;;;;;;13.52;87.96;101600.75;5067473;28;20076;-79
2022/08/08 03:48:14;;;;;;;12.25;8.00;;;;;;;13.47;88.20;101597.75;5082543;28;20052;-78
2022/08/08 03:50:46;;;;;;;10.57;8.18;;;;;;;13.45;88.48;101610.22;5077958;28;20499;-79
2022/08/08 03:53:15;;;;;;;11.13;8.52;;;;;;;13.44;88.69;101592.78;5063302;28;20119;-78
2022/08/08 03:55:44;;;;;;;15.13;8.13;;;;;;;13.46;88.65;101612.69;5057658;28;20052;-78
2022/08/08 03:58:18;;;;;;;15.40;8.88;;;;;;;13.41;88.91;101604.44;5060530;28;20053;-78
2022/08/08 04:00:50;;;;;;;13.55;8.60;;;;;;;13.46;88.70;101606.59;5065794;28;20082;-78
2022/08/08 04:03:17;;;;;;;12.23;8.23;;;;;;;13.46;88.76;101623.22;5082105;28;20111;-78
2022/08/08 04:05:44;;;;;;;14.20;9.20;;;;;;;13.43;88.79;101606.91;5082823;28;20395;-79
2022/08/08 04:08:18;;;;;;;13.60;8.23;;;;;;;13.43;89.17;101613.00;5083031;28;20071;-79
2022/08/08 04:10:48;;;;;;;12.10;8.40;;;;;;;13.42;88.83;101621.84;5080705;28;20084;-78
2022/08/08 04:13:16;;;;;;;13.25;8.30;;;;;;;13.40;89.04;101615.91;5063473;28;20049;-78
2022/08/08 04:15:43;;;;;;;12.25;8.48;;;;;;;13.38;89.15;101619.69;5057547;28;20495;-77
2022/08/08 04:18:10;;;;;;;11.65;8.88;;;;;;;13.45;88.97;101615.47;5078950;28;20091;-78
2022/08/08 04:20:37;;;;;;;18.05;9.50;;;;;;;13.42;88.97;101618.41;5081619;28;20541;-80
2022/08/08 04:23:04;;;;;;;11.70;9.18;;;;;;;13.42;89.18;101618.41;5081711;28;20131;-79
2022/08/08 04:25:31;;;;;;;16.30;9.27;;;;;;;13.43;89.02;101622.69;5070755;28;20048;-79
2022/08/08 04:27:58;;;;;;;11.65;9.10;;;;;;;13.43;89.21;101615.63;5061471;28;20079;-80
2022/08/08 04:30:26;;;;;;;13.43;10.23;;;;;;;13.53;88.97;101626.91;5062231;28;20166;-79
2022/08/08 04:32:53;;;;;;;12.75;9.10;;;;;;;13.58;89.10;101626.44;5061343;28;20473;-80
2022/08/08 04:35:21;;;;;;;12.93;9.25;;;;;;;13.64;88.79;101630.28;5061910;28;20431;-80
2022/08/08 04:37:48;;;;;;;16.15;9.75;;;;;;;13.75;88.57;101630.00;5075143;28;20056;-79
2022/08/08 04:40:15;;;;;;;18.77;10.40;;;;;;;13.78;88.48;101633.16;5081557;28;20083;-80
2022/08/08 04:42:46;;;;;;;15.85;9.95;;;;;;;13.88;87.86;101639.16;5082063;28;20104;-80
2022/08/08 04:45:13;;;;;;;14.88;9.82;;;;;;;13.99;87.57;101643.38;5079961;28;20087;-79
2022/08/08 04:47:41;;;;;;;15.20;10.63;;;;;;;14.07;87.09;101650.50;5081003;28;20051;-79
2022/08/08 04:50:08;;;;;;;12.38;8.35;;;;;;;14.12;87.14;101651.69;5077780;28;20099;-79
2022/08/08 04:52:35;;;;;;;12.82;9.35;;;;;;;14.22;86.75;101652.41;5081222;28;20087;-79
2022/08/08 04:55:02;;;;;;;13.60;9.55;;;;;;;14.39;85.97;101658.59;5068887;28;20053;-79
2022/08/08 04:57:29;;;;;;;16.05;9.63;;;;;;;14.45;85.86;101655.38;5061406;28;20124;-80
2022/08/08 04:59:56;;;;;;;14.88;9.30;;;;;;;14.53;85.67;101660.69;5061423;28;20049;-80
2022/08/08 05:02:22;;;;;;;13.93;8.68;;;;;;;14.70;85.47;101669.47;5080176;28;20447;-79
2022/08/08 05:04:50;;;;;;;15.48;9.32;;;;;;;14.86;84.50;101671.38;5081952;28;20048;-79
2022/08/08 05:07:17;;;;;;;18.88;10.05;;;;;;;14.83;84.49;101671.69;5085356;28;20127;-78
2022/08/08 05:09:44;;;;;;;13.48;9.80;;;;;;;14.80;85.08;101672.00;5084399;28;20044;-79
2022/08/08 05:12:10;;;;;;;18.27;9.75;;;;;;;14.81;85.14;101666.56;5068500;28;20053;-79
2022/08/08 05:14:37;;;;;;;14.27;10.35;;;;;;;14.84;85.05;101673.34;5065173;28;20049;-79
2022/08/08 05:17:04;;;;;;;17.25;9.85;;;;;;;14.82;85.26;101676.13;5079474;28;20053;-79
2022/08/08 05:19:32;;;;;;;13.27;9.30;;;;;;;14.99;85.25;101671.75;5085450;28;20138;-79
2022/08/08 05:22:00;;;;;;;13.68;8.98;;;;;;;15.69;83.20;101668.78;5084054;28;20082;-79
2022/08/08 05:24:27;;;;;;;13.65;9.45;;;;;;;16.17;80.22;101660.81;5065228;28;20044;-80
2022/08/08 05:26:54;;;;;;;11.98;8.60;;;;;;;16.31;79.82;101669.88;5065300;28;20273;-80
2022/08/08 05:29:20;;;;;;;15.20;8.70;;;;;;;16.97;78.26;101670.53;5064576;28;20087;-81
2022/08/08 05:31:47;;;;;;;9.60;7.53;;;;;;;17.87;74.87;101648.63;5064701;28;20049;-78
2022/08/08 05:34:24;;;;;;;12.60;7.95;;;;;;;18.84;70.89;101654.72;5076226;28;20162;-80
2022/08/08 05:36:52;;;;;;;13.68;7.85;;;;;;;19.61;68.08;101643.50;5066823;28;20052;-80
2022/08/08 05:39:22;;;;;;;11.02;7.45;;;;;;;20.45;65.63;101646.16;5062190;28;20052;-80
2022/08/08 05:41:50;;;;;;;13.02;7.50;;;;;;;20.93;63.26;101654.97;5077822;28;20084;-81
2022/08/08 05:44:21;;;;;;;12.75;7.38;;;;;;;21.25;62.51;101660.63;5081745;28;20076;-80
2022/08/08 05:46:52;;;;;;;9.75;6.78;;;;;;;21.71;60.98;101658.03;5069653;28;20052;-81
2022/08/08 05:49:19;;;;;;;51.03;9.98;;;;;;;22.44;58.72;101659.59;5063106;28;20048;-79
2022/08/08 05:51:47;;;;;;;12.40;7.25;;;;;;;22.88;57.32;101665.22;5060297;28;20053;-78
2022/08/08 05:54:14;;;;;;;9.25;7.10;;;;;;;22.39;58.62;101667.41;5059847;28;20076;-79
2022/08/08 05:56:44;;;;;;;13.05;7.80;;;;;;;22.63;57.81;101671.25;5064147;28;20131;-81
2022/08/08 05:59:16;;;;;;;11.10;7.22;;;;;;;22.91;57.06;101662.13;5063921;28;20071;-80
2022/08/08 06:01:43;;;;;;;10.82;7.57;;;;;;;22.83;57.03;101656.00;5072716;28;20045;-78
2022/08/08 06:04:11;;;;;;;11.90;7.75;;;;;;;22.83;56.62;101660.53;5080989;28;20079;-79
2022/08/08 06:06:40;;;;;;;14.60;7.95;;;;;;;22.38;57.92;101660.44;5079848;28;20076;-79
2022/08/08 06:09:09;;;;;;;9.10;6.95;;;;;;;22.02;58.57;101668.09;5075818;28;20110;-78
2022/08/08 06:11:36;;;;;;;11.20;7.35;;;;;;;21.67;59.80;101662.94;5062958;28;20353;-78
2022/08/08 06:14:05;;;;;;;24.90;8.55;;;;;;;21.67;59.61;101670.13;5055128;28;20133;-79
2022/08/08 06:16:33;;;;;;;11.23;7.25;;;;;;;21.79;59.41;101671.94;5066543;28;20532;-78
2022/08/08 06:19:01;;;;;;;8.63;7.20;;;;;;;22.18;58.98;101673.00;5075482;28;20041;-77
2022/08/08 06:21:28;;;;;;;9.85;7.50;;;;;;;22.58;57.61;101672.91;5066738;28;20060;-80
2022/08/08 06:23:55;;;;;;;15.10;7.60;;;;;;;22.72;56.40;101680.63;5059900;28;20100;-81
2022/08/08 06:26:25;;;;;;;13.55;7.60;;;;;;;23.09;55.59;101683.63;5062463;28;20144;-81
2022/08/08 06:28:58;;;;;;;9.18;7.40;;;;;;;22.80;55.66;101682.28;5060085;28;20083;-82
2022/08/08 06:31:30;;;;;;;9.52;7.00;;;;;;;23.38;54.80;101685.69;5071104;28;20079;-82
2022/08/08 06:34:05;;;;;;;10.95;7.38;;;;;;;23.70;54.17;101685.72;5073748;28;20132;-82
2022/08/08 06:36:37;;;;;;;15.27;7.80;;;;;;;23.96;53.37;101674.81;5061034;28;20081;-81
2022/08/08 06:39:05;;;;;;;10.10;7.28;;;;;;;24.91;51.30;101679.78;5061613;28;20431;-81
2022/08/08 06:41:40;;;;;;;14.55;7.60;;;;;;;24.29;52.51;101676.38;5061130;28;20112;-80
2022/08/08 06:44:10;;;;;;;10.40;7.32;;;;;;;24.12;52.46;101682.25;5070553;28;20422;-81
2022/08/08 06:46:39;;;;;;;8.52;7.28;;;;;;;23.71;53.91;101682.00;5080149;28;20521;-81
2022/08/08 06:49:06;;;;;;;10.02;7.25;;;;;;;23.56;54.06;101689.53;5081235;28;20151;-81
2022/08/08 06:51:35;;;;;;;11.15;7.38;;;;;;;24.15;52.42;101684.50;5081045;28;20067;-80
2022/08/08 06:54:02;;;;;;;10.15;7.40;;;;;;;24.09;53.14;101690.75;5079565;28;20080;-80
2022/08/08 06:56:30;;;;;;;11.20;8.10;;;;;;;24.58;52.05;101680.16;5068873;28;20045;-81
2022/08/08 06:58:57;;;;;;;12.00;7.25;;;;;;;24.81;52.10;101688.34;5060436;28;20408;-80
2022/08/08 07:01:24;;;;;;;9.82;7.60;;;;;;;25.48;49.94;101688.31;5069949;28;20052;-84
2022/08/08 07:03:58;;;;;;;8.25;7.00;;;;;;;25.54;49.30;101682.00;5079502;28;20113;-82
2022/08/08 07:06:28;;;;;;;8.82;7.22;;;;;;;25.63;49.46;101692.16;5079680;28;20424;-81
2022/08/08 07:08:59;;;;;;;10.25;6.90;;;;;;;25.30;49.66;101708.75;5076106;28;20495;-83
2022/08/08 07:11:29;;;;;;;9.88;7.35;;;;;;;25.55;49.19;101710.44;5067147;28;20160;-81
2022/08/08 07:14:00;;;;;;;7.65;6.35;;;;;;;25.41;50.42;101710.66;5067128;28;20072;-80
2022/08/08 07:16:35;;;;;;;9.63;7.00;;;;;;;24.26;51.80;101706.25;5065299;28;20128;-81
2022/08/08 07:19:17;;;;;;;8.73;7.07;;;;;;;24.88;51.29;101707.00;5068173;28;20083;-82
2022/08/08 07:21:54;;;;;;;10.35;7.55;;;;;;;25.26;49.94;101707.56;5078566;28;20049;-81
2022/08/08 07:24:26;;;;;;;11.30;7.75;;;;;;;25.11;50.86;101720.53;5085021;28;20075;-82
2022/08/08 07:26:53;;;;;;;;;;;;;;;25.23;50.37;101708.00;5077345;28;20056;-81
2022/08/08 07:29:21;;;;;;;11.98;7.47;;;;;;;25.94;49.37;101728.63;5074202;28;19982;-82
2022/08/08 07:31:49;;;;;;;13.27;8.10;;;;;;;24.92;51.60;101722.41;5079405;28;20080;-81
2022/08/08 07:34:18;;;;;;;15.82;7.53;;;;;;;26.35;49.59;101729.59;5073256;28;20060;-84
2022/08/08 07:36:46;;;;;;;14.13;8.25;;;;;;;26.00;49.34;101724.19;5077899;28;20078;-81
2022/08/08 07:39:13;;;;;;;10.88;7.57;;;;;;;26.66;48.59;101729.22;5074600;28;20068;-81
2022/08/08 07:41:41;;;;;;;11.95;7.80;;;;;;;27.34;46.45;101733.81;5078611;28;20140;-84
2022/08/08 07:44:09;;;;;;;11.55;7.65;;;;;;;27.12;47.55;101732.84;5077795;28;20154;-83
2022/08/08 07:46:36;;;;;;;8.68;6.80;;;;;;;27.85;46.58;101732.06;5074942;28;20083;-83
2022/08/08 07:49:03;;;;;;;8.57;7.32;;;;;;;28.17;45.56;101731.44;5062993;28;20080;-82
2022/08/08 07:51:32;;;;;;;10.77;7.50;;;;;;;27.66;45.97;101736.84;5071277;28;20095;-81
2022/08/08 07:54:11;;;;;;;13.40;7.63;;;;;;;27.77;46.68;101737.00;5062884;28;20075;-82
2022/08/08 07:56:48;;;;;;;13.75;7.65;;;;;;;27.50;47.45;101734.06;5077599;28;20048;-80
2022/08/08 07:59:15;;;;;;;13.18;7.70;;;;;;;27.93;46.92;101741.56;5079076;28;20044;-81
2022/08/08 08:01:54;;;;;;;12.57;8.10;;;;;;;27.83;46.67;101741.41;5081141;28;20076;-82
2022/08/08 08:04:27;;;;;;;9.60;7.10;;;;;;;28.10;46.13;101737.00;5082127;22;20482;-80
2022/08/08 08:06:58;;;;;;;10.73;7.38;;;;;;;27.02;46.84;101729.97;5052983;28;20049;-79
2022/08/08 08:09:26;;;;;;;14.02;7.80;;;;;;;27.78;46.96;101736.78;5054620;28;20578;-78
2022/08/08 08:11:55;;;;;;;10.40;6.57;;;;;;;28.36;44.64;101733.63;5050386;28;20589;-78
2022/08/08 08:14:30;;;;;;;11.27;7.30;;;;;;;28.29;44.37;101734.91;5053236;28;20049;-80
2022/08/08 08:16:58;;;;;;;8.32;6.78;;;;;;;28.28;44.10;101736.78;5052822;28;20045;-77
2022/08/08 08:19:30;;;;;;;10.98;6.78;;;;;;;28.19;44.42;101732.03;5051920;28;20053;-78
2022/08/08 08:21:58;;;;;;;8.75;6.55;;;;;;;27.66;44.50;101738.72;5051437;28;20044;-77
2022/08/08 08:24:26;;;;;;;9.50;6.65;;;;;;;27.47;45.36;101734.56;5050205;28;20479;-79
2022/08/08 08:26:53;;;;;;;7.78;6.22;;;;;;;27.05;46.57;101726.81;5052079;28;20558;-78
2022/08/08 08:29:19;;;;;;;11.00;6.22;;;;;;;27.45;45.77;101729.44;5051325;28;20486;-78
2022/08/08 08:31:46;;;;;;;10.77;7.47;;;;;;;27.71;44.64;101730.72;5049489;28;20081;-78
2022/08/08 08:34:13;;;;;;;10.55;6.45;;;;;;;27.37;45.09;101727.16;5050482;28;20508;-77
2022/08/08 08:36:40;;;;;;;9.93;6.45;;;;;;;27.14;45.16;101725.38;5050144;28;20045;-78
2022/08/08 08:39:08;;;;;;;14.18;6.63;;;;;;;27.30;45.93;101735.38;5050862;28;20056;-77
2022/08/08 08:41:37;;;;;;;8.48;6.25;;;;;;;26.96;45.25;101729.03;5055056;28;20080;-78
2022/08/08 08:44:04;;;;;;;15.15;6.50;;;;;;;27.10;44.74;101734.97;5055566;28;20052;-78
2022/08/08 08:46:34;;;;;;;9.70;6.30;;;;;;;27.48;44.46;101728.13;5053307;28;20495;-77
2022/08/08 08:49:01;;;;;;;10.20;6.18;;;;;;;28.00;44.04;101736.84;5051805;28;20072;-77
2022/08/08 08:51:29;;;;;;;10.90;6.75;;;;;;;27.64;43.58;101730.06;5049375;28;20120;-77
2022/08/08 08:54:00;;;;;;;9.38;6.60;;;;;;;27.24;44.42;101732.81;5047782;28;20046;-78
2022/08/08 08:56:29;;;;;;;7.90;5.65;;;;;;;28.00;43.48;101734.16;5050307;28;20434;-77
2022/08/08 08:58:57;;;;;;;9.18;5.35;;;;;;;27.23;43.48;101729.31;5047538;28;20586;-77
2022/08/08 09:01:27;;;;;;;7.72;5.43;;;;;;;27.63;43.64;101725.75;5052767;28;20140;-76
2022/08/08 09:03:59;;;;;;;12.07;5.50;;;;;;;27.48;43.94;101726.25;5053790;28;20048;-78
2022/08/08 09:06:28;;;;;;;8.88;5.80;;;;;;;28.22;43.06;101732.38;5054460;28;20053;-78
2022/08/08 09:09:04;;;;;;;9.80;5.60;;;;;;;27.64;43.14;101724.69;5054634;28;20065;-77
2022/08/08 09:11:34;;;;;;;9.75;5.20;;;;;;;27.71;44.51;101726.16;5053598;28;20151;-79
2022/08/08 09:14:01;;;;;;;10.27;5.45;;;;;;;27.18;44.24;101723.84;5050057;28;20136;-79
2022/08/08 09:16:29;;;;;;;11.55;6.07;;;;;;;27.09;43.34;101726.09;5052571;28;20566;-78
2022/08/08 09:18:57;;;;;;;9.68;5.13;;;;;;;27.80;42.75;101726.59;5052383;28;20509;-78
2022/08/08 09:21:24;;;;;;;8.52;5.25;;;;;;;26.78;44.02;101726.50;5054238;28;20128;-78
2022/08/08 09:23:51;;;;;;;10.38;4.88;;;;;;;27.28;42.99;101715.97;5054001;28;20464;-78
2022/08/08 09:26:26;;;;;;;10.23;4.90;;;;;;;27.71;42.17;101730.72;5054116;28;20131;-79
2022/08/08 09:29:00;;;;;;;8.95;5.18;;;;;;;27.10;42.93;101726.91;5054054;28;20216;-79
2022/08/08 09:31:44;;;;;;;7.35;4.93;;;;;;;27.39;42.31;101723.16;5055316;28;20146;-79
2022/08/08 09:34:12;;;;;;;8.48;4.90;;;;;;;27.84;41.93;101718.84;5054442;28;20048;-77
2022/08/08 09:36:40;;;;;;;6.47;4.60;;;;;;;27.89;41.84;101727.78;5055114;28;20542;-78
2022/08/08 09:39:11;;;;;;;10.05;4.78;;;;;;;27.31;42.41;101718.19;5055381;28;20086;-79
2022/08/08 09:41:40;;;;;;;10.93;5.65;;;;;;;27.02;43.50;101716.53;5053858;28;20123;-79
2022/08/08 09:44:20;;;;;;;8.57;4.90;;;;;;;27.58;43.38;101720.25;5054691;28;20215;-80
2022/08/08 09:46:49;;;;;;;6.82;4.40;;;;;;;27.70;42.04;101715.66;5054440;28;20045;-78
2022/08/08 09:49:17;;;;;;;10.23;4.75;;;;;;;27.17;41.93;101708.78;5054484;28;20080;-79
2022/08/08 09:51:51;;;;;;;6.28;4.68;;;;;;;27.38;42.01;101709.97;5054585;28;20049;-79
2022/08/08 09:54:23;;;;;;;8.07;4.40;;;;;;;27.13;42.48;101707.63;5054521;28;20460;-78
2022/08/08 09:56:55;;;;;;;8.00;4.65;;;;;;;27.30;41.75;101708.50;5055645;28;20120;-79
2022/08/08 09:59:26;;;;;;;5.32;4.30;;;;;;;27.02;42.28;101705.78;5054458;28;20053;-79
2022/08/08 10:01:53;;;;;;;7.13;4.35;;;;;;;26.64;42.96;101709.03;5054744;28;20049;-79
2022/08/08 10:04:21;;;;;;;7.88;5.40;;;;;;;26.01;43.87;101707.03;5053806;28;20128;-78
2022/08/08 10:06:50;;;;;;;9.02;4.85;;;;;;;26.02;43.83;101706.81;5055416;28;20056;-79
2022/08/08 10:09:16;;;;;;;7.53;4.85;;;;;;;26.23;43.93;101700.06;5053637;28;20056;-77
2022/08/08 10:11:48;;;;;;;8.18;4.47;;;;;;;26.55;42.54;101705.88;5054667;28;20508;-79
2022/08/08 10:14:15;;;;;;;6.68;4.55;;;;;;;26.88;42.16;101693.69;5055225;28;20480;-79
2022/08/08 10:16:43;;;;;;;5.78;4.50;;;;;;;26.90;42.14;101702.31;5054336;28;20135;-78
2022/08/08 10:19:11;;;;;;;6.32;4.97;;;;;;;25.63;44.06;101696.72;5054243;28;20148;-79
2022/08/08 10:21:38;;;;;;;6.50;4.95;;;;;;;25.94;43.48;101704.50;5054344;28;20491;-81
2022/08/08 10:24:07;;;;;;;7.53;4.93;;;;;;;26.89;43.70;101688.06;5055737;28;20088;-78
2022/08/08 10:26:40;;;;;;;10.82;4.85;;;;;;;26.72;41.58;101701.41;5054537;28;20072;-78
2022/08/08 10:29:08;;;;;;;8.95;4.85;;;;;;;26.64;42.50;101693.72;5057408;28;20048;-79
2022/08/08 10:34:25;;;;;;;7.63;4.57;;;;;;;26.92;42.18;101684.91;5058540;28;20052;-79
2022/08/08 10:36:53;;;;;;;8.07;4.72;;;;;;;26.69;42.81;101691.16;5053812;28;20136;-79
2022/08/08 10:39:21;;;;;;;6.20;5.25;;;;;;;26.85;41.54;101689.59;5056201;28;20045;-79
2022/08/08 10:41:56;;;;;;;6.22;4.65;;;;;;;27.38;41.35;101694.66;5055887;28;20551;-79
2022/08/08 10:44:35;;;;;;;8.75;4.95;;;;;;;27.06;42.38;101693.50;5054932;28;20174;-79
2022/08/08 10:47:10;;;;;;;5.25;4.75;;;;;;;26.69;41.31;101679.59;5052962;28;20045;-79
2022/08/08 10:49:39;;;;;;;7.80;4.65;;;;;;;26.74;42.05;101691.25;5052702;28;20057;-78
2022/08/08 10:52:06;;;;;;;8.52;4.88;;;;;;;27.26;42.19;101693.91;5053894;28;20045;-78
2022/08/08 10:54:33;;;;;;;5.78;4.80;;;;;;;27.43;41.62;101692.03;5052851;28;20542;-78
2022/08/08 10:57:01;;;;;;;9.55;4.50;;;;;;;27.28;41.78;101699.84;5052881;28;20088;-77
2022/08/08 10:59:28;;;;;;;7.15;4.97;;;;;;;27.12;41.65;101699.81;5053430;28;20104;-79
2022/08/08 11:01:54;;;;;;;8.50;5.10;;;;;;;26.80;41.94;101689.50;5053175;28;20128;-80
2022/08/08 11:04:22;;;;;;;7.68;5.10;;;;;;;27.12;41.46;101689.88;5051993;28;20099;-78
2022/08/08 11:06:59;;;;;;;8.15;5.70;;;;;;;27.40;41.34;101697.94;5057726;28;20211;-81
2022/08/08 11:09:26;;;;;;;10.90;4.97;;;;;;;27.18;41.84;101678.16;5054023;28;20051;-80
2022/08/08 11:11:53;;;;;;;9.70;5.18;;;;;;;27.22;41.24;101682.00;5054450;28;20073;-76
2022/08/08 11:14:20;;;;;;;9.38;5.30;;;;;;;26.98;41.44;101685.84;5053342;28;20053;-79
2022/08/08 11:16:48;;;;;;;7.03;5.22;;;;;;;26.78;42.33;101684.38;5054020;28;20092;-79
2022/08/08 11:19:15;;;;;;;9.35;5.25;;;;;;;27.32;41.52;101667.94;5052874;28;20084;-79
2022/08/08 11:21:44;;;;;;;7.63;5.25;;;;;;;27.56;41.44;101684.72;5054533;28;20138;-80
2022/08/08 11:24:12;;;;;;;7.10;4.90;;;;;;;26.96;42.06;101674.50;5054963;28;20045;-80
2022/08/08 11:26:42;;;;;;;6.43;5.45;;;;;;;27.22;41.49;101673.13;5056166;28;20075;-80
2022/08/08 11:29:09;;;;;;;11.20;4.90;;;;;;;27.58;41.29;101669.16;5055886;28;20072;-80
2022/08/08 11:31:38;;;;;;;7.68;5.70;;;;;;;27.25;40.86;101665.41;5057505;28;20144;-80
2022/08/08 11:34:06;;;;;;;6.57;5.20;;;;;;;27.44;41.77;101671.34;5058428;28;20060;-81
2022/08/08 11:36:34;;;;;;;9.13;5.93;;;;;;;26.65;41.08;101667.69;5056378;28;20110;-80
2022/08/08 11:39:03;;;;;;;7.45;5.15;;;;;;;26.98;41.81;101667.03;5055236;28;20128;-80
2022/08/08 11:41:31;;;;;;;6.85;5.38;;;;;;;26.91;41.09;101666.34;5054748;28;20131;-78
2022/08/08 11:43:58;;;;;;;11.27;5.38;;;;;;;26.70;41.27;101665.94;5055328;28;20057;-79
2022/08/08 11:46:27;;;;;;;6.65;5.20;;;;;;;27.03;41.11;101665.25;5056893;28;20059;-79
2022/08/08 11:48:54;;;;;;;7.53;5.15;;;;;;;27.12;40.80;101667.56;5055966;28;20045;-79
2022/08/08 11:51:23;;;;;;;6.60;5.30;;;;;;;26.49;41.21;101661.19;5054934;28;20099;-78
2022/08/08 11:53:51;;;;;;;8.35;5.63;;;;;;;27.07;40.62;101665.59;5054981;28;20117;-79
2022/08/08 11:56:19;;;;;;;8.30;5.18;;;;;;;27.23;40.61;101664.00;5054854;28;20057;-80
2022/08/08 11:58:48;;;;;;;6.10;4.35;;;;;;;27.13;41.15;101659.25;5054638;28;20068;-80